Disclaimer

Please do not use the information listed here in-flight or in-navigation, as they are not provided to us by the airports but are provided by volunteers, so they might be outdated.

Search


Regions


Airport information page

Radio informations:
Tower (TWR) - 118.4 MHz
RDO - 6802.5 MHz
Approach (APP) - 119.1 MHz

Airport informations:
Latitude: 06° 03' 28.81" N
Longitude: 125° 05' 45.72" E
Elevation: 505 feet - 154 meters
Operating hours: Remarks
Operating agency: Civil government, landing fees and diplomatic clearance may be required
Timezone: UTC+8
Fuel: Unknown fuel type or whether there is any fuel.

Runway information:
17/35 - 10587 x 148 feet< - >3227 x 45 meters

Recent METARs:
RPMR 190000Z 00000KT 9999 FEW018 OVC080 27/22 Q1013 NOSIG RMK A2991

Airport on the map: